PACV METAR and TAF weather

Enter ICAO airport designator
Station Type Date Time Source
PACV METAR 2020/12/05 05:53 UTC NOAA

PACV 050553Z 00000KT 10SM CLR M08/M10 A2971 RMK AO2 SLP060 I1000 I6001 T10831100 11039 21089 51017


Station Type Date Time Source
PACV Decoded METAR 2020/12/05 05:53 UTC NOAA

MERLE K. SMITH AIRPORT, AK, United States (PACV) 60-30N 145-29W 13M
Dec 05, 2020 - 12:53 AM EST / 2020.12.05 0553 UTC
Wind: Calm:0
Visibility: 10 mile(s):0
Sky conditions: clear
Temperature: 17.1 F (-8.3 C)
Dew Point: 14.0 F (-10.0 C)
Relative Humidity: 87%
Pressure (altimeter): 29.71 in. Hg (1006 hPa)
Pressure tendency: 0.05 inches (1.7 hPa) higher than three hours ago
ob: PACV 050553Z 00000KT 10SM CLR M08/M10 A2971 RMK AO2 SLP060 I1000 I6001 T10831100 11039 21089 51017
cycle: 6

Station Type Date Time Source
PACV TAF 2020/12/05 06:39 UTC NOAA

TAF PACV 050535Z 0506/0606 03006KT P6SM SKC

Example: see airport list